createdAt,value
2023-03-15T00:01:50.518Z,100599.38
2023-03-15T00:04:18.544Z,100621.56
2023-03-15T00:06:46.508Z,100631.22
2023-03-15T00:09:14.594Z,100629.81
2023-03-15T00:11:42.763Z,100624.16
2023-03-15T00:14:12.386Z,100635.41
2023-03-15T00:16:40.233Z,100632.66
2023-03-15T00:19:08.217Z,100643.47
2023-03-15T00:21:36.176Z,100653.88
2023-03-15T00:24:04.776Z,100650.66
2023-03-15T00:26:32.720Z,100660.41
2023-03-15T00:29:00.698Z,100655.41
2023-03-15T00:31:30.364Z,100660.28
2023-03-15T00:33:58.398Z,100659.31
2023-03-15T00:36:26.768Z,100661.94
2023-03-15T00:38:56.887Z,100673.75
2023-03-15T00:41:25.529Z,100665.56
2023-03-15T00:43:56.444Z,100660.41
2023-03-15T00:46:24.502Z,100669.06
2023-03-15T00:48:54.129Z,100669.53
2023-03-15T00:51:24.242Z,100678.34
2023-03-15T00:53:54.425Z,100688.56
2023-03-15T00:56:24.313Z,100687.19
2023-03-15T00:58:53.366Z,100687.44
2023-03-15T01:01:23.588Z,100686.16
2023-03-15T01:03:52.992Z,100689.78
2023-03-15T01:06:23.220Z,100693.88
2023-03-15T01:08:52.240Z,100689.81
2023-03-15T01:11:24.427Z,100695.78
2023-03-15T01:13:53.087Z,100694.44
2023-03-15T01:16:21.561Z,100696.00
2023-03-15T01:18:51.542Z,100691.06
2023-03-15T01:21:21.518Z,100702.59
2023-03-15T01:23:49.512Z,100702.31
2023-03-15T01:26:18.581Z,100697.31
2023-03-15T01:28:46.747Z,100706.16
2023-03-15T01:31:19.440Z,100703.25
2023-03-15T01:33:47.737Z,100706.06
2023-03-15T01:36:15.791Z,100705.91
2023-03-15T01:38:45.110Z,100711.34
2023-03-15T01:41:14.103Z,100704.84
2023-03-15T01:43:47.193Z,100715.34
2023-03-15T01:46:27.892Z,100714.56
2023-03-15T01:49:02.438Z,100719.50
2023-03-15T01:51:37.960Z,100723.97
2023-03-15T01:54:11.743Z,100724.13
2023-03-15T01:56:43.237Z,100728.31
2023-03-15T01:59:16.415Z,100732.06
2023-03-15T02:01:45.983Z,100741.25
2023-03-15T02:04:19.418Z,100743.88
2023-03-15T02:06:48.894Z,100734.47
2023-03-15T02:09:19.856Z,100738.72
2023-03-15T02:11:49.140Z,100751.22
2023-03-15T02:14:17.372Z,100751.81
2023-03-15T02:16:45.421Z,100752.41
2023-03-15T02:19:29.097Z,100754.22
2023-03-15T02:22:08.178Z,100756.59
2023-03-15T02:24:46.264Z,100754.84
2023-03-15T02:27:14.578Z,100761.28
2023-03-15T02:29:43.949Z,100759.03
2023-03-15T02:32:12.003Z,100767.38
2023-03-15T02:34:40.043Z,100773.28
2023-03-15T02:37:08.127Z,100776.28
2023-03-15T02:39:36.055Z,100779.53
2023-03-15T02:42:04.044Z,100777.66
2023-03-15T02:44:34.360Z,100775.59
2023-03-15T02:47:06.376Z,100786.03
2023-03-15T02:49:42.968Z,100773.53
2023-03-15T02:52:12.248Z,100789.16
2023-03-15T02:54:43.369Z,100795.97
2023-03-15T02:57:11.480Z,100803.31
2023-03-15T02:59:39.768Z,100807.75
2023-03-15T03:02:11.769Z,100818.03
2023-03-15T03:04:39.965Z,100820.50
2023-03-15T03:07:08.281Z,100820.44
2023-03-15T03:09:36.354Z,100827.19
2023-03-15T03:12:04.609Z,100831.28
2023-03-15T03:14:32.600Z,100826.13
2023-03-15T03:17:01.603Z,100817.09
2023-03-15T03:19:30.976Z,100831.88
2023-03-15T03:21:58.987Z,100836.00
2023-03-15T03:24:26.896Z,100844.91
2023-03-15T03:26:57.983Z,100848.84
2023-03-15T03:29:26.386Z,100864.50
2023-03-15T03:31:54.229Z,100868.06
2023-03-15T03:34:22.242Z,100878.91
2023-03-15T03:36:51.712Z,100873.22
2023-03-15T03:39:19.639Z,100881.44
2023-03-15T03:41:47.527Z,100881.13
2023-03-15T03:44:15.390Z,100892.75
2023-03-15T03:46:43.241Z,100894.59
2023-03-15T03:49:12.601Z,100904.19
2023-03-15T03:51:41.241Z,100909.59
2023-03-15T03:54:10.588Z,100915.97
2023-03-15T03:56:39.726Z,100918.72
2023-03-15T03:59:07.725Z,100918.59
2023-03-15T04:01:35.692Z,100920.34
2023-03-15T04:04:03.740Z,100922.22
2023-03-15T04:06:32.380Z,100923.03
2023-03-15T04:09:00.234Z,100922.38
2023-03-15T04:11:30.155Z,100914.50
2023-03-15T04:13:58.023Z,100916.19
2023-03-15T04:16:26.106Z,100926.81
2023-03-15T04:18:57.481Z,100923.53
2023-03-15T04:21:25.358Z,100927.03
2023-03-15T04:23:53.920Z,100941.75
2023-03-15T04:26:26.647Z,100947.22
2023-03-15T04:28:57.007Z,100954.28
2023-03-15T04:31:27.346Z,100965.81
2023-03-15T04:33:55.828Z,100967.66
2023-03-15T04:36:24.637Z,100972.03
2023-03-15T04:38:52.613Z,100977.38
2023-03-15T04:41:20.536Z,100980.94
2023-03-15T04:43:48.504Z,100980.00
2023-03-15T04:46:17.758Z,100975.97
2023-03-15T04:48:45.622Z,100974.25
2023-03-15T04:51:13.464Z,100975.19
2023-03-15T04:53:41.416Z,100982.88
2023-03-15T04:56:09.596Z,100975.19
2023-03-15T04:58:37.484Z,100981.47
2023-03-15T05:01:05.771Z,100983.34
2023-03-15T05:03:35.108Z,100985.06
2023-03-15T05:06:08.305Z,100982.41
2023-03-15T05:08:37.014Z,100989.16
2023-03-15T05:11:06.187Z,100990.78
2023-03-15T05:13:34.078Z,100993.47
2023-03-15T05:16:02.195Z,100995.09
2023-03-15T05:18:30.491Z,101003.75
2023-03-15T05:21:00.068Z,101015.72
2023-03-15T05:23:28.200Z,101018.28
2023-03-15T05:25:57.391Z,101020.00
2023-03-15T05:28:26.436Z,101020.06
2023-03-15T05:30:54.698Z,101025.38
2023-03-15T05:33:23.024Z,101042.50
2023-03-15T05:35:51.007Z,101050.59
2023-03-15T05:38:21.010Z,101046.25
2023-03-15T05:40:48.892Z,101054.16
2023-03-15T05:43:16.888Z,101054.91
2023-03-15T05:45:47.148Z,101060.59
2023-03-15T05:48:15.110Z,101066.41
2023-03-15T05:50:43.038Z,101069.06
2023-03-15T05:53:11.218Z,101074.28
2023-03-15T05:55:40.565Z,101067.56
2023-03-15T05:58:08.498Z,101072.69
2023-03-15T06:00:36.328Z,101074.69
2023-03-15T06:03:05.044Z,101077.28
2023-03-15T06:05:32.941Z,101080.53
2023-03-15T06:08:00.765Z,101087.78
2023-03-15T06:10:28.633Z,101097.50
2023-03-15T06:12:58.173Z,101096.34
2023-03-15T06:15:26.157Z,101106.91
2023-03-15T06:17:54.057Z,101113.34
2023-03-15T06:20:22.220Z,101117.41
2023-03-15T06:22:50.125Z,101123.41
2023-03-15T06:25:18.150Z,101127.84
2023-03-15T06:27:46.086Z,101131.25
2023-03-15T06:30:17.193Z,101133.34
2023-03-15T06:32:45.302Z,101139.94
2023-03-15T06:35:13.247Z,101145.28
2023-03-15T06:37:41.938Z,101144.84
2023-03-15T06:40:11.747Z,101146.16
2023-03-15T06:42:40.619Z,101148.56
2023-03-15T06:45:10.562Z,101158.13
2023-03-15T06:47:40.043Z,101156.03
2023-03-15T06:50:09.070Z,101155.69
2023-03-15T06:52:37.040Z,101156.91
2023-03-15T06:55:05.510Z,101155.28
2023-03-15T06:57:33.371Z,101151.41
2023-03-15T07:00:01.223Z,101162.44
2023-03-15T07:02:33.979Z,101162.81
2023-03-15T07:05:03.221Z,101162.09
2023-03-15T07:07:31.331Z,101169.66
2023-03-15T07:09:59.337Z,101176.63
2023-03-15T07:12:27.272Z,101183.75
2023-03-15T07:14:55.159Z,101180.34
2023-03-15T07:17:23.093Z,101177.34
2023-03-15T07:19:56.617Z,101194.69
2023-03-15T07:22:26.791Z,101205.00
2023-03-15T07:24:54.678Z,101208.81
2023-03-15T07:27:22.513Z,101238.59
2023-03-15T07:29:50.534Z,101248.41
2023-03-15T07:32:18.817Z,101247.44
2023-03-15T07:34:46.769Z,101258.00
2023-03-15T07:37:14.691Z,101272.13
2023-03-15T07:39:44.038Z,101265.81
2023-03-15T07:42:12.229Z,101259.53
2023-03-15T07:44:40.175Z,101263.19
2023-03-15T07:47:08.623Z,101271.31
2023-03-15T07:49:36.614Z,101263.13
2023-03-15T07:52:05.591Z,101260.19
2023-03-15T07:54:34.397Z,101261.16
2023-03-15T07:57:03.740Z,101264.19
2023-03-15T07:59:32.293Z,101262.75
2023-03-15T08:02:02.411Z,101265.66
2023-03-15T08:04:30.886Z,101268.72
2023-03-15T08:06:58.759Z,101266.63
2023-03-15T08:09:26.803Z,101258.50
2023-03-15T08:11:54.768Z,101257.38
2023-03-15T08:14:24.710Z,101262.47
2023-03-15T08:16:52.803Z,101265.81
2023-03-15T08:19:22.190Z,101270.03
2023-03-15T08:21:53.985Z,101270.25
2023-03-15T08:24:22.597Z,101275.00
2023-03-15T08:26:51.252Z,101271.22
2023-03-15T08:29:19.390Z,101270.84
2023-03-15T08:31:48.696Z,101280.22
2023-03-15T08:34:17.251Z,101293.78
2023-03-15T08:36:47.582Z,101314.28
2023-03-15T08:39:16.015Z,101305.75
2023-03-15T08:41:45.575Z,101310.19
2023-03-15T08:44:13.696Z,101306.44
2023-03-15T08:46:41.622Z,101304.72
2023-03-15T08:49:11.036Z,101312.78
2023-03-15T08:51:38.953Z,101317.47
2023-03-15T08:54:07.696Z,101309.56
2023-03-15T08:56:36.279Z,101318.59
2023-03-15T08:59:06.507Z,101324.53
2023-03-15T09:01:34.822Z,101317.75
2023-03-15T09:04:03.661Z,101315.34
2023-03-15T09:06:33.575Z,101313.50
2023-03-15T09:09:05.187Z,101320.72
2023-03-15T09:11:33.063Z,101328.75
2023-03-15T09:14:01.189Z,101339.59
2023-03-15T09:16:29.005Z,101360.81
2023-03-15T09:18:56.935Z,101369.69
2023-03-15T09:21:25.153Z,101381.09
2023-03-15T09:23:54.585Z,101404.59
2023-03-15T09:26:22.588Z,101414.03
2023-03-15T09:28:53.062Z,101382.66
2023-03-15T09:31:20.963Z,101378.16
2023-03-15T09:33:49.765Z,101376.84
2023-03-15T09:36:17.873Z,101372.34
2023-03-15T09:38:48.449Z,101381.88
2023-03-15T09:41:32.234Z,101371.22
2023-03-15T09:44:14.272Z,101375.78
2023-03-15T09:46:50.957Z,101374.81
2023-03-15T09:49:23.331Z,101375.84
2023-03-15T09:51:56.125Z,101372.06
2023-03-15T09:54:32.307Z,101377.03
2023-03-15T09:57:05.769Z,101379.94
2023-03-15T09:59:36.700Z,101379.53
2023-03-15T10:02:19.118Z,101382.69
2023-03-15T10:04:51.285Z,101388.44
2023-03-15T10:07:19.648Z,101394.94
2023-03-15T10:09:48.165Z,101409.19
2023-03-15T10:12:25.618Z,101412.44
2023-03-15T10:15:08.118Z,101414.19
2023-03-15T10:17:47.540Z,101405.50
2023-03-15T10:20:20.141Z,101402.59
2023-03-15T10:22:55.896Z,101392.88
2023-03-15T10:25:27.372Z,101395.03
2023-03-15T10:28:00.411Z,101396.97
2023-03-15T10:30:30.993Z,101389.38
2023-03-15T10:33:03.175Z,101388.50
2023-03-15T10:35:32.196Z,101386.06
2023-03-15T10:38:00.233Z,101392.78
2023-03-15T10:40:43.147Z,101389.53
2023-03-15T10:43:19.464Z,101388.06
2023-03-15T10:46:01.394Z,101386.16
2023-03-15T10:48:31.232Z,101383.81
2023-03-15T10:51:04.859Z,101389.44
2023-03-15T10:53:33.644Z,101388.88
2023-03-15T10:56:05.005Z,101390.50
2023-03-15T10:59:05.310Z,101387.91
2023-03-15T11:01:37.610Z,101394.25
2023-03-15T11:04:16.492Z,101404.31
2023-03-15T11:06:48.116Z,101406.69
2023-03-15T11:09:18.246Z,101409.91
2023-03-15T11:12:00.799Z,101413.31
2023-03-15T11:14:35.198Z,101420.78
2023-03-15T11:17:05.650Z,101423.38
2023-03-15T11:19:38.792Z,101433.03
2023-03-15T11:22:06.898Z,101424.44
2023-03-15T11:24:35.726Z,101444.41
2023-03-15T11:27:12.032Z,101433.34
2023-03-15T11:29:45.260Z,101445.97
2023-03-15T11:32:16.861Z,101439.91
2023-03-15T11:34:49.762Z,101453.94
2023-03-15T11:37:23.497Z,101439.66
2023-03-15T11:40:08.867Z,101442.06
2023-03-15T11:42:47.866Z,101440.41
2023-03-15T11:45:25.190Z,101443.34
2023-03-15T11:47:58.833Z,101436.34
2023-03-15T11:50:26.902Z,101478.50
2023-03-15T11:52:54.892Z,101509.06
2023-03-15T11:55:29.246Z,101495.78
2023-03-15T11:57:58.074Z,101491.22
2023-03-15T12:01:02.030Z,101480.50
2023-03-15T12:03:35.454Z,101482.97
2023-03-15T12:06:36.889Z,101481.50
2023-03-15T12:09:41.685Z,101487.72
2023-03-15T12:12:36.730Z,101483.25
2023-03-15T12:15:07.008Z,101481.13
2023-03-15T12:17:45.477Z,101487.31
2023-03-15T12:20:28.659Z,101484.28
2023-03-15T12:23:20.700Z,101484.56
2023-03-15T12:25:57.188Z,101478.81
2023-03-15T12:28:29.227Z,101475.75
2023-03-15T12:31:01.821Z,101473.75
2023-03-15T12:33:31.736Z,101479.69
2023-03-15T12:36:11.257Z,101477.19
2023-03-15T12:38:41.890Z,101472.16
2023-03-15T12:41:31.044Z,101471.13
2023-03-15T12:44:19.811Z,101479.97
2023-03-15T12:46:59.380Z,101468.72
2023-03-15T12:49:42.907Z,101469.06
2023-03-15T12:52:35.661Z,101473.75
2023-03-15T12:55:13.135Z,101470.03
2023-03-15T12:57:48.714Z,101473.91
2023-03-15T13:00:18.760Z,101472.59
2023-03-15T13:02:48.268Z,101473.34
2023-03-15T13:05:23.844Z,101482.31
2023-03-15T13:07:59.498Z,101483.88
2023-03-15T13:11:00.354Z,101489.75
2023-03-15T13:13:53.806Z,101492.69
2023-03-15T13:16:29.853Z,101481.19
2023-03-15T13:19:07.430Z,101481.94
2023-03-15T13:21:37.229Z,101488.72
2023-03-15T13:24:16.754Z,101482.03
2023-03-15T13:26:55.255Z,101483.38
2023-03-15T13:29:28.407Z,101484.47
2023-03-15T13:32:09.511Z,101484.75
2023-03-15T13:34:37.478Z,101484.13
2023-03-15T13:37:05.363Z,101491.34
2023-03-15T13:39:38.656Z,101499.31
2023-03-15T13:42:18.088Z,101474.06
2023-03-15T13:44:46.039Z,101486.78
2023-03-15T13:47:21.912Z,101492.63
2023-03-15T13:49:53.543Z,101493.38
2023-03-15T13:52:21.503Z,101494.97
2023-03-15T13:54:54.833Z,101492.88
2023-03-15T13:57:24.597Z,101486.63
2023-03-15T13:59:54.449Z,101491.28
2023-03-15T14:02:26.210Z,101486.09
2023-03-15T14:04:58.888Z,101477.88
2023-03-15T14:07:30.853Z,101486.22
2023-03-15T14:10:27.593Z,101486.28
2023-03-15T14:12:57.471Z,101487.28
2023-03-15T14:15:27.903Z,101503.84
2023-03-15T14:18:02.212Z,101500.31
2023-03-15T14:20:33.643Z,101512.59
2023-03-15T14:23:03.161Z,101509.59
2023-03-15T14:25:36.407Z,101508.09
2023-03-15T14:28:05.512Z,101517.72
2023-03-15T14:30:37.154Z,101518.13
2023-03-15T14:33:08.417Z,101512.56
2023-03-15T14:35:44.111Z,101518.06
2023-03-15T14:38:19.952Z,101523.44
2023-03-15T14:40:49.933Z,101533.72
2023-03-15T14:43:19.137Z,101528.41
2023-03-15T14:45:49.065Z,101535.28
2023-03-15T14:48:26.042Z,101537.88
2023-03-15T14:50:55.396Z,101530.84
2023-03-15T14:53:26.280Z,101545.09
2023-03-15T14:55:55.633Z,101530.03
2023-03-15T14:58:26.231Z,101536.31
2023-03-15T15:00:57.944Z,101534.69
2023-03-15T15:03:33.542Z,101546.47
2023-03-15T15:06:03.031Z,101543.56
2023-03-15T15:08:32.843Z,101533.19
2023-03-15T15:11:02.777Z,101547.50
2023-03-15T15:13:32.646Z,101531.44
2023-03-15T15:16:03.674Z,101538.00
2023-03-15T15:18:33.454Z,101537.31
2023-03-15T15:21:04.315Z,101533.31
2023-03-15T15:23:47.468Z,101544.22
2023-03-15T15:26:31.229Z,101552.44
2023-03-15T15:28:59.671Z,101566.81
2023-03-15T15:31:29.334Z,101569.97
2023-03-15T15:33:58.014Z,101568.16
2023-03-15T15:36:29.489Z,101575.16
2023-03-15T15:39:01.277Z,101573.16
2023-03-15T15:41:32.047Z,101574.13
2023-03-15T15:44:01.970Z,101579.66
2023-03-15T15:46:30.358Z,101574.22
2023-03-15T15:48:58.928Z,101573.84
2023-03-15T15:51:29.718Z,101577.81
2023-03-15T15:53:59.071Z,101582.00
2023-03-15T15:56:34.156Z,101596.41
2023-03-15T15:59:04.580Z,101591.78
2023-03-15T16:01:33.151Z,101590.91
2023-03-15T16:04:02.073Z,101599.66
2023-03-15T16:06:31.795Z,101603.81
2023-03-15T16:09:00.112Z,101609.28
2023-03-15T16:11:29.212Z,101603.41
2023-03-15T16:13:58.743Z,101604.28
2023-03-15T16:16:27.528Z,101598.28
2023-03-15T16:18:55.808Z,101612.34
2023-03-15T16:21:33.897Z,101619.97
2023-03-15T16:24:06.601Z,101620.72
2023-03-15T16:26:37.729Z,101622.63
2023-03-15T16:29:16.642Z,101632.16
2023-03-15T16:31:46.324Z,101636.94
2023-03-15T16:34:17.380Z,101642.25
2023-03-15T16:36:49.607Z,101635.09
2023-03-15T16:39:18.783Z,101640.31
2023-03-15T16:41:47.919Z,101643.19
2023-03-15T16:44:21.482Z,101655.31
2023-03-15T16:46:49.810Z,101655.13
2023-03-15T16:49:17.738Z,101651.84
2023-03-15T16:51:49.016Z,101656.47
2023-03-15T16:54:30.628Z,101664.13
2023-03-15T16:57:05.645Z,101659.22
2023-03-15T16:59:35.224Z,101670.84
2023-03-15T17:02:03.378Z,101675.22
2023-03-15T17:04:33.324Z,101683.13
2023-03-15T17:07:01.498Z,101683.38
2023-03-15T17:09:29.879Z,101686.47
2023-03-15T17:11:58.177Z,101689.13
2023-03-15T17:14:35.422Z,101691.16
2023-03-15T17:17:05.178Z,101709.81
2023-03-15T17:19:37.186Z,101701.84
2023-03-15T17:22:05.786Z,101706.31
2023-03-15T17:24:34.598Z,101719.84
2023-03-15T17:27:02.660Z,101715.53
2023-03-15T17:29:31.094Z,101714.84
2023-03-15T17:31:59.455Z,101723.78
2023-03-15T17:34:31.757Z,101718.31
2023-03-15T17:36:59.919Z,101722.66
2023-03-15T17:39:28.216Z,101728.84
2023-03-15T17:41:56.433Z,101731.50
2023-03-15T17:44:25.269Z,101733.47
2023-03-15T17:46:53.310Z,101723.03
2023-03-15T17:49:30.409Z,101728.31
2023-03-15T17:52:00.169Z,101736.50
2023-03-15T17:54:28.283Z,101738.19
2023-03-15T17:56:59.478Z,101748.94
2023-03-15T17:59:28.496Z,101750.78
2023-03-15T18:01:56.829Z,101743.06
2023-03-15T18:04:25.075Z,101748.31
2023-03-15T18:06:54.114Z,101744.06
2023-03-15T18:09:27.135Z,101745.16
2023-03-15T18:11:55.092Z,101755.00
2023-03-15T18:14:23.246Z,101759.38
2023-03-15T18:16:51.213Z,101750.53
2023-03-15T18:19:19.113Z,101754.47
2023-03-15T18:21:47.310Z,101766.75
2023-03-15T18:24:15.462Z,101769.34
2023-03-15T18:26:44.733Z,101769.34
2023-03-15T18:29:12.635Z,101768.53
2023-03-15T18:31:54.457Z,101772.84
2023-03-15T18:34:23.227Z,101772.19
2023-03-15T18:36:51.382Z,101770.56
2023-03-15T18:39:19.584Z,101764.41
2023-03-15T18:41:49.103Z,101772.34
2023-03-15T18:44:20.430Z,101775.97
2023-03-15T18:46:48.330Z,101775.16
2023-03-15T18:49:18.179Z,101782.22
2023-03-15T18:51:46.291Z,101781.34
2023-03-15T18:54:14.190Z,101781.56
2023-03-15T18:56:43.252Z,101785.13
2023-03-15T18:59:12.608Z,101784.34
2023-03-15T19:01:43.867Z,101790.66
2023-03-15T19:04:12.583Z,101796.88
2023-03-15T19:06:41.135Z,101786.34
2023-03-15T19:09:12.741Z,101794.19
2023-03-15T19:11:41.873Z,101790.81
2023-03-15T19:14:09.962Z,101791.44
2023-03-15T19:16:39.731Z,101787.69
2023-03-15T19:19:07.775Z,101796.63
2023-03-15T19:21:35.815Z,101792.78
2023-03-15T19:24:04.528Z,101797.41
2023-03-15T19:26:33.257Z,101785.94
2023-03-15T19:29:06.341Z,101797.41
2023-03-15T19:31:34.649Z,101799.25
2023-03-15T19:34:04.602Z,101803.63
2023-03-15T19:36:32.757Z,101801.94
2023-03-15T19:39:00.821Z,101802.00
2023-03-15T19:41:29.348Z,101812.59
2023-03-15T19:43:57.379Z,101809.16
2023-03-15T19:46:25.708Z,101810.06
2023-03-15T19:48:53.584Z,101810.06
2023-03-15T19:51:23.209Z,101809.25
2023-03-15T19:53:51.392Z,101814.66
2023-03-15T19:56:19.238Z,101815.44
2023-03-15T19:58:47.190Z,101809.25
2023-03-15T20:01:16.102Z,101817.69
2023-03-15T20:03:55.395Z,101825.78
2023-03-15T20:06:25.133Z,101825.78
2023-03-15T20:08:54.936Z,101826.97
2023-03-15T20:11:25.309Z,101831.44
2023-03-15T20:13:53.796Z,101830.59
2023-03-15T20:16:23.205Z,101842.81
2023-03-15T20:18:52.487Z,101835.75
2023-03-15T20:21:20.429Z,101838.38
2023-03-15T20:23:50.009Z,101839.50
2023-03-15T20:26:19.565Z,101836.84
2023-03-15T20:28:48.123Z,101845.63
2023-03-15T20:31:18.780Z,101846.44
2023-03-15T20:33:50.076Z,101847.22
2023-03-15T20:36:19.284Z,101853.41
2023-03-15T20:38:47.475Z,101853.59
2023-03-15T20:41:18.244Z,101854.47
2023-03-15T20:43:47.620Z,101853.63
2023-03-15T20:46:16.794Z,101858.41
2023-03-15T20:48:45.016Z,101862.88
2023-03-15T20:51:12.983Z,101863.69
2023-03-15T20:53:40.808Z,101870.72
2023-03-15T20:56:09.566Z,101871.63
2023-03-15T20:58:38.964Z,101874.56
2023-03-15T21:01:09.430Z,101863.34
2023-03-15T21:03:38.101Z,101867.81
2023-03-15T21:06:07.248Z,101874.69
2023-03-15T21:08:35.850Z,101876.31
2023-03-15T21:11:05.884Z,101878.34
2023-03-15T21:13:35.582Z,101875.00
2023-03-15T21:16:05.664Z,101875.75
2023-03-15T21:18:38.553Z,101884.34
2023-03-15T21:21:08.306Z,101870.28
2023-03-15T21:23:36.877Z,101877.16
2023-03-15T21:26:08.004Z,101877.94
2023-03-15T21:28:38.212Z,101886.75
2023-03-15T21:31:08.495Z,101883.50
2023-03-15T21:33:36.825Z,101879.84
2023-03-15T21:36:05.487Z,101871.78
2023-03-15T21:38:35.031Z,101873.63
2023-03-15T21:41:09.063Z,101871.91
2023-03-15T21:43:37.839Z,101871.91
2023-03-15T21:46:08.904Z,101873.81
2023-03-15T21:48:38.229Z,101873.94
2023-03-15T21:51:07.528Z,101870.53
2023-03-15T21:53:36.264Z,101875.88
2023-03-15T21:56:05.232Z,101871.38
2023-03-15T21:58:34.102Z,101885.44
2023-03-15T22:01:08.190Z,101882.09
2023-03-15T22:03:39.356Z,101880.38
2023-03-15T22:06:08.375Z,101884.78
2023-03-15T22:08:36.425Z,101890.94
2023-03-15T22:11:04.648Z,101887.47
2023-03-15T22:13:32.885Z,101892.72
2023-03-15T22:16:01.589Z,101888.31
2023-03-15T22:18:30.040Z,101878.44
2023-03-15T22:20:59.628Z,101890.09
2023-03-15T22:23:28.268Z,101899.75
2023-03-15T22:25:57.215Z,101889.22
2023-03-15T22:28:26.317Z,101893.63
2023-03-15T22:30:54.833Z,101892.72
2023-03-15T22:33:23.272Z,101895.28
2023-03-15T22:35:56.717Z,101894.44
2023-03-15T22:38:27.182Z,101896.19
2023-03-15T22:41:03.045Z,101885.69
2023-03-15T22:43:31.012Z,101891.00
2023-03-15T22:45:59.474Z,101888.34
2023-03-15T22:48:27.496Z,101886.72
2023-03-15T22:51:00.032Z,101892.00
2023-03-15T22:53:29.899Z,101886.84
2023-03-15T22:55:58.172Z,101894.66
2023-03-15T22:58:27.009Z,101888.47
2023-03-15T23:00:55.502Z,101887.59
2023-03-15T23:03:24.878Z,101888.53
2023-03-15T23:05:52.808Z,101888.53
2023-03-15T23:08:20.866Z,101890.53
2023-03-15T23:10:50.348Z,101886.16
2023-03-15T23:13:18.310Z,101890.72
2023-03-15T23:15:46.414Z,101895.13
2023-03-15T23:18:15.097Z,101906.72
2023-03-15T23:20:43.357Z,101904.91
2023-03-15T23:23:11.227Z,101909.38
2023-03-15T23:25:39.960Z,101911.16
2023-03-15T23:28:09.371Z,101913.97
2023-03-15T23:30:38.997Z,101915.81
2023-03-15T23:33:08.410Z,101918.50
2023-03-15T23:35:37.118Z,101922.94
2023-03-15T23:38:05.258Z,101923.06
2023-03-15T23:40:33.499Z,101918.69
2023-03-15T23:43:01.363Z,101931.91
2023-03-15T23:45:31.074Z,101923.16
2023-03-15T23:47:59.019Z,101933.81
2023-03-15T23:50:27.636Z,101940.03
2023-03-15T23:52:57.190Z,101943.69
2023-03-15T23:55:25.707Z,101937.56
2023-03-15T23:57:53.662Z,101943.94
